sensor_id;sensor_type;location;lat;lon;timestamp;P1;durP1;ratioP1;P2;durP2;ratioP2
47219;SDS011;32961;51.936;4.788;2023-02-21T00:02:41;49.65;;;20.33;;
47219;SDS011;32961;51.936;4.788;2023-02-21T00:05:26;49.33;;;19.83;;
47219;SDS011;32961;51.936;4.788;2023-02-21T00:08:12;52.42;;;21.88;;
47219;SDS011;32961;51.936;4.788;2023-02-21T00:10:59;41.67;;;17.80;;
47219;SDS011;32961;51.936;4.788;2023-02-21T00:13:44;44.58;;;18.08;;
47219;SDS011;32961;51.936;4.788;2023-02-21T00:16:29;51.85;;;18.73;;
47219;SDS011;32961;51.936;4.788;2023-02-21T00:19:14;40.72;;;18.60;;
47219;SDS011;32961;51.936;4.788;2023-02-21T00:22:00;42.50;;;18.75;;
47219;SDS011;32961;51.936;4.788;2023-02-21T00:24:45;41.72;;;18.23;;
47219;SDS011;32961;51.936;4.788;2023-02-21T00:27:32;37.30;;;17.27;;
47219;SDS011;32961;51.936;4.788;2023-02-21T00:30:17;36.53;;;16.60;;
47219;SDS011;32961;51.936;4.788;2023-02-21T00:33:04;45.63;;;17.50;;
47219;SDS011;32961;51.936;4.788;2023-02-21T00:35:50;38.05;;;18.05;;
47219;SDS011;32961;51.936;4.788;2023-02-21T00:38:35;42.10;;;18.17;;
47219;SDS011;32961;51.936;4.788;2023-02-21T00:41:21;43.40;;;18.85;;
47219;SDS011;32961;51.936;4.788;2023-02-21T00:44:08;46.08;;;18.77;;
47219;SDS011;32961;51.936;4.788;2023-02-21T00:46:54;44.33;;;18.75;;
47219;SDS011;32961;51.936;4.788;2023-02-21T00:49:39;50.53;;;20.23;;
47219;SDS011;32961;51.936;4.788;2023-02-21T00:52:24;45.40;;;19.40;;
47219;SDS011;32961;51.936;4.788;2023-02-21T00:55:09;61.35;;;21.25;;
47219;SDS011;32961;51.936;4.788;2023-02-21T00:57:55;43.75;;;20.88;;
47219;SDS011;32961;51.936;4.788;2023-02-21T01:00:42;47.25;;;21.75;;
47219;SDS011;32961;51.936;4.788;2023-02-21T01:03:27;59.15;;;22.80;;
47219;SDS011;32961;51.936;4.788;2023-02-21T01:06:12;48.45;;;21.02;;
47219;SDS011;32961;51.936;4.788;2023-02-21T01:08:57;45.88;;;23.02;;
47219;SDS011;32961;51.936;4.788;2023-02-21T01:11:43;49.70;;;22.95;;
47219;SDS011;32961;51.936;4.788;2023-02-21T01:14:28;54.95;;;24.52;;
47219;SDS011;32961;51.936;4.788;2023-02-21T01:17:15;51.28;;;22.92;;
47219;SDS011;32961;51.936;4.788;2023-02-21T01:20:00;49.00;;;22.98;;
47219;SDS011;32961;51.936;4.788;2023-02-21T01:22:45;54.25;;;22.70;;
47219;SDS011;32961;51.936;4.788;2023-02-21T01:25:31;51.40;;;22.73;;
47219;SDS011;32961;51.936;4.788;2023-02-21T01:28:16;49.03;;;23.05;;
47219;SDS011;32961;51.936;4.788;2023-02-21T01:31:02;53.45;;;26.13;;
47219;SDS011;32961;51.936;4.788;2023-02-21T01:33:48;55.00;;;25.75;;
47219;SDS011;32961;51.936;4.788;2023-02-21T01:36:34;51.50;;;24.20;;
47219;SDS011;32961;51.936;4.788;2023-02-21T01:39:19;49.05;;;24.25;;
47219;SDS011;32961;51.936;4.788;2023-02-21T01:42:05;44.53;;;24.20;;
47219;SDS011;32961;51.936;4.788;2023-02-21T01:45:05;51.97;;;23.75;;
47219;SDS011;32961;51.936;4.788;2023-02-21T01:48:22;60.35;;;24.13;;
47219;SDS011;32961;51.936;4.788;2023-02-21T01:51:12;49.45;;;24.30;;
47219;SDS011;32961;51.936;4.788;2023-02-21T01:54:00;55.17;;;24.38;;
47219;SDS011;32961;51.936;4.788;2023-02-21T01:56:46;45.40;;;22.73;;
47219;SDS011;32961;51.936;4.788;2023-02-21T01:59:32;53.35;;;22.95;;
47219;SDS011;32961;51.936;4.788;2023-02-21T02:02:19;55.63;;;25.38;;
47219;SDS011;32961;51.936;4.788;2023-02-21T02:05:11;51.40;;;23.35;;
47219;SDS011;32961;51.936;4.788;2023-02-21T02:07:58;55.53;;;24.25;;
47219;SDS011;32961;51.936;4.788;2023-02-21T02:10:44;53.95;;;23.83;;
47219;SDS011;32961;51.936;4.788;2023-02-21T02:13:44;46.35;;;23.35;;
47219;SDS011;32961;51.936;4.788;2023-02-21T02:16:30;52.85;;;23.33;;
47219;SDS011;32961;51.936;4.788;2023-02-21T02:19:12;53.85;;;24.77;;
47219;SDS011;32961;51.936;4.788;2023-02-21T02:22:12;54.60;;;25.02;;
47219;SDS011;32961;51.936;4.788;2023-02-21T02:27:50;55.33;;;25.10;;
47219;SDS011;32961;51.936;4.788;2023-02-21T02:30:32;54.78;;;26.17;;
47219;SDS011;32961;51.936;4.788;2023-02-21T02:36:31;62.17;;;26.75;;
47219;SDS011;32961;51.936;4.788;2023-02-21T02:39:09;60.80;;;27.98;;
47219;SDS011;32961;51.936;4.788;2023-02-21T02:41:46;56.30;;;26.23;;
47219;SDS011;32961;51.936;4.788;2023-02-21T02:44:20;67.00;;;27.70;;
47219;SDS011;32961;51.936;4.788;2023-02-21T02:46:54;66.60;;;26.67;;
47219;SDS011;32961;51.936;4.788;2023-02-21T02:49:27;60.03;;;27.52;;
47219;SDS011;32961;51.936;4.788;2023-02-21T02:52:03;63.00;;;27.27;;
47219;SDS011;32961;51.936;4.788;2023-02-21T02:54:31;60.42;;;29.02;;
47219;SDS011;32961;51.936;4.788;2023-02-21T02:56:59;61.70;;;29.92;;
47219;SDS011;32961;51.936;4.788;2023-02-21T02:59:30;56.15;;;28.35;;
47219;SDS011;32961;51.936;4.788;2023-02-21T03:02:13;62.08;;;30.75;;
47219;SDS011;32961;51.936;4.788;2023-02-21T03:04:56;64.55;;;30.75;;
47219;SDS011;32961;51.936;4.788;2023-02-21T03:07:40;64.28;;;32.08;;
47219;SDS011;32961;51.936;4.788;2023-02-21T03:10:17;66.20;;;30.38;;
47219;SDS011;32961;51.936;4.788;2023-02-21T03:12:53;63.03;;;28.00;;
47219;SDS011;32961;51.936;4.788;2023-02-21T03:15:28;67.75;;;30.35;;
47219;SDS011;32961;51.936;4.788;2023-02-21T03:18:04;64.40;;;29.83;;
47219;SDS011;32961;51.936;4.788;2023-02-21T03:20:38;70.45;;;30.23;;
47219;SDS011;32961;51.936;4.788;2023-02-21T03:23:09;68.18;;;30.90;;
47219;SDS011;32961;51.936;4.788;2023-02-21T03:25:40;75.45;;;31.20;;
47219;SDS011;32961;51.936;4.788;2023-02-21T03:28:09;59.08;;;30.52;;
47219;SDS011;32961;51.936;4.788;2023-02-21T03:30:37;68.55;;;28.30;;
47219;SDS011;32961;51.936;4.788;2023-02-21T03:33:07;69.35;;;32.17;;
47219;SDS011;32961;51.936;4.788;2023-02-21T03:35:35;63.92;;;31.02;;
47219;SDS011;32961;51.936;4.788;2023-02-21T03:38:03;74.82;;;30.80;;
47219;SDS011;32961;51.936;4.788;2023-02-21T03:40:32;73.75;;;31.48;;
47219;SDS011;32961;51.936;4.788;2023-02-21T03:43:01;68.43;;;31.35;;
47219;SDS011;32961;51.936;4.788;2023-02-21T03:45:32;77.40;;;32.35;;
47219;SDS011;32961;51.936;4.788;2023-02-21T03:48:00;75.50;;;31.05;;
47219;SDS011;32961;51.936;4.788;2023-02-21T03:50:29;70.15;;;31.60;;
47219;SDS011;32961;51.936;4.788;2023-02-21T03:52:56;77.30;;;32.17;;
47219;SDS011;32961;51.936;4.788;2023-02-21T03:55:24;72.93;;;33.28;;
47219;SDS011;32961;51.936;4.788;2023-02-21T03:57:53;74.32;;;31.15;;
47219;SDS011;32961;51.936;4.788;2023-02-21T04:00:23;84.13;;;33.90;;
47219;SDS011;32961;51.936;4.788;2023-02-21T04:02:51;75.88;;;32.05;;
47219;SDS011;32961;51.936;4.788;2023-02-21T04:05:19;83.13;;;33.60;;
47219;SDS011;32961;51.936;4.788;2023-02-21T04:07:47;84.80;;;32.70;;
47219;SDS011;32961;51.936;4.788;2023-02-21T04:10:14;77.40;;;32.72;;
47219;SDS011;32961;51.936;4.788;2023-02-21T04:12:42;76.70;;;32.35;;
47219;SDS011;32961;51.936;4.788;2023-02-21T04:15:12;70.15;;;32.60;;
47219;SDS011;32961;51.936;4.788;2023-02-21T04:17:39;69.80;;;32.95;;
47219;SDS011;32961;51.936;4.788;2023-02-21T04:20:07;81.25;;;33.90;;
47219;SDS011;32961;51.936;4.788;2023-02-21T04:22:36;80.30;;;34.25;;
47219;SDS011;32961;51.936;4.788;2023-02-21T04:25:05;94.47;;;37.28;;
47219;SDS011;32961;51.936;4.788;2023-02-21T04:27:34;72.07;;;34.00;;
47219;SDS011;32961;51.936;4.788;2023-02-21T04:30:02;78.38;;;31.98;;
47219;SDS011;32961;51.936;4.788;2023-02-21T04:32:31;75.38;;;34.90;;
47219;SDS011;32961;51.936;4.788;2023-02-21T04:34:59;83.97;;;33.67;;
47219;SDS011;32961;51.936;4.788;2023-02-21T04:37:27;74.05;;;33.33;;
47219;SDS011;32961;51.936;4.788;2023-02-21T04:39:55;74.05;;;34.20;;
47219;SDS011;32961;51.936;4.788;2023-02-21T04:42:23;79.20;;;34.03;;
47219;SDS011;32961;51.936;4.788;2023-02-21T04:44:50;83.35;;;32.97;;
47219;SDS011;32961;51.936;4.788;2023-02-21T04:47:25;80.88;;;31.92;;
47219;SDS011;32961;51.936;4.788;2023-02-21T04:49:54;71.07;;;32.05;;
47219;SDS011;32961;51.936;4.788;2023-02-21T04:52:22;68.38;;;31.15;;
47219;SDS011;32961;51.936;4.788;2023-02-21T04:54:50;87.72;;;33.83;;
47219;SDS011;32961;51.936;4.788;2023-02-21T04:57:21;71.18;;;32.88;;
47219;SDS011;32961;51.936;4.788;2023-02-21T04:59:54;81.53;;;34.40;;
47219;SDS011;32961;51.936;4.788;2023-02-21T05:02:23;81.32;;;34.72;;
47219;SDS011;32961;51.936;4.788;2023-02-21T05:04:50;79.93;;;35.50;;
47219;SDS011;32961;51.936;4.788;2023-02-21T05:07:20;79.20;;;34.17;;
47219;SDS011;32961;51.936;4.788;2023-02-21T05:09:47;79.05;;;33.28;;
47219;SDS011;32961;51.936;4.788;2023-02-21T05:12:15;76.88;;;34.03;;
47219;SDS011;32961;51.936;4.788;2023-02-21T05:14:43;73.53;;;33.15;;
47219;SDS011;32961;51.936;4.788;2023-02-21T05:17:11;78.32;;;33.17;;
47219;SDS011;32961;51.936;4.788;2023-02-21T05:19:39;78.60;;;33.33;;
47219;SDS011;32961;51.936;4.788;2023-02-21T05:22:06;86.82;;;34.67;;
47219;SDS011;32961;51.936;4.788;2023-02-21T05:24:39;74.40;;;34.28;;
47219;SDS011;32961;51.936;4.788;2023-02-21T05:27:08;81.22;;;35.20;;
47219;SDS011;32961;51.936;4.788;2023-02-21T05:29:36;78.63;;;32.83;;
47219;SDS011;32961;51.936;4.788;2023-02-21T05:32:04;84.45;;;33.75;;
47219;SDS011;32961;51.936;4.788;2023-02-21T05:34:32;85.10;;;37.10;;
47219;SDS011;32961;51.936;4.788;2023-02-21T05:37:00;81.32;;;34.40;;
47219;SDS011;32961;51.936;4.788;2023-02-21T05:39:28;82.43;;;35.33;;
47219;SDS011;32961;51.936;4.788;2023-02-21T05:42:00;85.95;;;36.60;;
47219;SDS011;32961;51.936;4.788;2023-02-21T05:44:28;75.72;;;36.25;;
47219;SDS011;32961;51.936;4.788;2023-02-21T05:46:55;82.53;;;37.50;;
47219;SDS011;32961;51.936;4.788;2023-02-21T05:49:23;87.38;;;36.70;;
47219;SDS011;32961;51.936;4.788;2023-02-21T05:51:52;98.35;;;36.75;;
47219;SDS011;32961;51.936;4.788;2023-02-21T05:54:21;80.93;;;36.22;;
47219;SDS011;32961;51.936;4.788;2023-02-21T05:56:49;78.95;;;34.83;;
47219;SDS011;32961;51.936;4.788;2023-02-21T05:59:19;77.72;;;36.88;;
47219;SDS011;32961;51.936;4.788;2023-02-21T06:01:48;84.10;;;37.38;;
47219;SDS011;32961;51.936;4.788;2023-02-21T06:04:17;83.28;;;36.17;;
47219;SDS011;32961;51.936;4.788;2023-02-21T06:06:45;85.72;;;35.72;;
47219;SDS011;32961;51.936;4.788;2023-02-21T06:09:12;73.28;;;34.97;;
47219;SDS011;32961;51.936;4.788;2023-02-21T06:11:40;83.63;;;34.95;;
47219;SDS011;32961;51.936;4.788;2023-02-21T06:14:12;84.82;;;35.63;;
47219;SDS011;32961;51.936;4.788;2023-02-21T06:16:44;87.00;;;40.90;;
47219;SDS011;32961;51.936;4.788;2023-02-21T06:19:13;81.80;;;36.28;;
47219;SDS011;32961;51.936;4.788;2023-02-21T06:21:43;80.60;;;35.88;;
47219;SDS011;32961;51.936;4.788;2023-02-21T06:24:11;93.28;;;38.45;;
47219;SDS011;32961;51.936;4.788;2023-02-21T06:26:39;85.45;;;36.25;;
47219;SDS011;32961;51.936;4.788;2023-02-21T06:29:07;76.50;;;34.28;;
47219;SDS011;32961;51.936;4.788;2023-02-21T06:31:36;82.45;;;35.00;;
47219;SDS011;32961;51.936;4.788;2023-02-21T06:34:06;103.95;;;37.17;;
47219;SDS011;32961;51.936;4.788;2023-02-21T06:36:33;88.50;;;38.25;;
47219;SDS011;32961;51.936;4.788;2023-02-21T06:39:02;94.82;;;36.97;;
47219;SDS011;32961;51.936;4.788;2023-02-21T06:41:30;96.00;;;36.00;;
47219;SDS011;32961;51.936;4.788;2023-02-21T06:43:58;78.50;;;35.63;;
47219;SDS011;32961;51.936;4.788;2023-02-21T06:46:27;91.85;;;36.35;;
47219;SDS011;32961;51.936;4.788;2023-02-21T06:48:56;88.05;;;33.95;;
47219;SDS011;32961;51.936;4.788;2023-02-21T06:51:26;80.05;;;36.10;;
47219;SDS011;32961;51.936;4.788;2023-02-21T06:53:55;85.93;;;34.63;;
47219;SDS011;32961;51.936;4.788;2023-02-21T06:56:24;86.47;;;37.05;;
47219;SDS011;32961;51.936;4.788;2023-02-21T06:58:52;99.70;;;39.53;;
47219;SDS011;32961;51.936;4.788;2023-02-21T07:01:20;89.18;;;35.90;;
47219;SDS011;32961;51.936;4.788;2023-02-21T07:03:49;88.68;;;35.97;;
47219;SDS011;32961;51.936;4.788;2023-02-21T07:06:17;85.53;;;36.42;;
47219;SDS011;32961;51.936;4.788;2023-02-21T07:08:47;81.90;;;35.47;;
47219;SDS011;32961;51.936;4.788;2023-02-21T07:11:15;80.70;;;32.70;;
47219;SDS011;32961;51.936;4.788;2023-02-21T07:13:46;89.60;;;36.15;;
47219;SDS011;32961;51.936;4.788;2023-02-21T07:16:16;90.22;;;37.10;;
47219;SDS011;32961;51.936;4.788;2023-02-21T07:18:44;84.88;;;36.40;;
47219;SDS011;32961;51.936;4.788;2023-02-21T07:21:13;87.72;;;36.17;;
47219;SDS011;32961;51.936;4.788;2023-02-21T07:23:42;94.00;;;36.80;;
47219;SDS011;32961;51.936;4.788;2023-02-21T07:26:11;84.38;;;34.75;;
47219;SDS011;32961;51.936;4.788;2023-02-21T07:28:42;109.22;;;38.10;;
47219;SDS011;32961;51.936;4.788;2023-02-21T07:31:11;92.50;;;37.70;;
47219;SDS011;32961;51.936;4.788;2023-02-21T07:33:40;101.22;;;41.55;;
47219;SDS011;32961;51.936;4.788;2023-02-21T07:36:08;101.78;;;40.72;;
47219;SDS011;32961;51.936;4.788;2023-02-21T07:38:36;93.45;;;41.20;;
47219;SDS011;32961;51.936;4.788;2023-02-21T07:41:04;109.60;;;42.78;;
47219;SDS011;32961;51.936;4.788;2023-02-21T07:43:36;101.30;;;39.55;;
47219;SDS011;32961;51.936;4.788;2023-02-21T07:46:08;99.45;;;38.75;;
47219;SDS011;32961;51.936;4.788;2023-02-21T07:48:36;100.20;;;40.60;;
47219;SDS011;32961;51.936;4.788;2023-02-21T07:51:05;104.90;;;39.95;;
47219;SDS011;32961;51.936;4.788;2023-02-21T07:53:33;106.22;;;41.67;;
47219;SDS011;32961;51.936;4.788;2023-02-21T07:56:01;107.55;;;42.60;;
47219;SDS011;32961;51.936;4.788;2023-02-21T07:58:30;104.40;;;39.97;;
47219;SDS011;32961;51.936;4.788;2023-02-21T08:01:04;110.30;;;40.47;;
47219;SDS011;32961;51.936;4.788;2023-02-21T08:03:32;105.90;;;40.25;;
47219;SDS011;32961;51.936;4.788;2023-02-21T08:06:01;105.95;;;39.78;;
47219;SDS011;32961;51.936;4.788;2023-02-21T08:08:28;92.93;;;37.42;;
47219;SDS011;32961;51.936;4.788;2023-02-21T08:10:56;107.75;;;39.75;;
47219;SDS011;32961;51.936;4.788;2023-02-21T08:13:24;100.80;;;39.00;;
47219;SDS011;32961;51.936;4.788;2023-02-21T08:15:52;94.38;;;36.30;;
47219;SDS011;32961;51.936;4.788;2023-02-21T08:18:21;97.88;;;36.60;;
47219;SDS011;32961;51.936;4.788;2023-02-21T08:20:50;86.55;;;36.55;;
47219;SDS011;32961;51.936;4.788;2023-02-21T08:23:19;91.85;;;35.20;;
47219;SDS011;32961;51.936;4.788;2023-02-21T08:25:47;102.65;;;36.30;;
47219;SDS011;32961;51.936;4.788;2023-02-21T08:28:16;95.63;;;34.55;;
47219;SDS011;32961;51.936;4.788;2023-02-21T08:30:44;85.97;;;36.38;;
47219;SDS011;32961;51.936;4.788;2023-02-21T08:33:12;106.82;;;36.92;;
47219;SDS011;32961;51.936;4.788;2023-02-21T08:35:41;95.20;;;35.97;;
47219;SDS011;32961;51.936;4.788;2023-02-21T08:38:09;92.72;;;35.15;;
47219;SDS011;32961;51.936;4.788;2023-02-21T08:40:37;94.22;;;34.58;;
47219;SDS011;32961;51.936;4.788;2023-02-21T08:43:04;90.55;;;34.53;;
47219;SDS011;32961;51.936;4.788;2023-02-21T08:45:32;88.15;;;34.22;;
47219;SDS011;32961;51.936;4.788;2023-02-21T08:48:00;97.38;;;34.05;;
47219;SDS011;32961;51.936;4.788;2023-02-21T08:50:28;93.50;;;34.00;;
47219;SDS011;32961;51.936;4.788;2023-02-21T08:52:58;101.07;;;40.38;;
47219;SDS011;32961;51.936;4.788;2023-02-21T08:55:25;92.13;;;34.10;;
47219;SDS011;32961;51.936;4.788;2023-02-21T08:57:53;84.75;;;36.28;;
47219;SDS011;32961;51.936;4.788;2023-02-21T09:00:22;89.90;;;35.15;;
47219;SDS011;32961;51.936;4.788;2023-02-21T09:02:56;92.03;;;34.72;;
47219;SDS011;32961;51.936;4.788;2023-02-21T09:05:25;89.20;;;34.28;;
47219;SDS011;32961;51.936;4.788;2023-02-21T09:07:55;91.70;;;34.10;;
47219;SDS011;32961;51.936;4.788;2023-02-21T09:10:28;100.88;;;34.63;;
47219;SDS011;32961;51.936;4.788;2023-02-21T09:12:59;92.63;;;35.53;;
47219;SDS011;32961;51.936;4.788;2023-02-21T09:15:27;107.18;;;38.85;;
47219;SDS011;32961;51.936;4.788;2023-02-21T09:17:55;103.18;;;35.47;;
47219;SDS011;32961;51.936;4.788;2023-02-21T09:20:23;101.70;;;35.97;;
47219;SDS011;32961;51.936;4.788;2023-02-21T09:22:52;100.22;;;35.88;;
47219;SDS011;32961;51.936;4.788;2023-02-21T09:25:21;94.57;;;34.30;;
47219;SDS011;32961;51.936;4.788;2023-02-21T09:27:52;96.78;;;33.42;;
47219;SDS011;32961;51.936;4.788;2023-02-21T09:30:21;100.05;;;36.38;;
47219;SDS011;32961;51.936;4.788;2023-02-21T09:32:51;92.03;;;33.92;;
47219;SDS011;32961;51.936;4.788;2023-02-21T09:35:20;109.53;;;38.42;;
47219;SDS011;32961;51.936;4.788;2023-02-21T09:37:48;96.25;;;36.95;;
47219;SDS011;32961;51.936;4.788;2023-02-21T09:40:19;88.50;;;34.33;;
47219;SDS011;32961;51.936;4.788;2023-02-21T09:42:57;96.95;;;35.75;;
47219;SDS011;32961;51.936;4.788;2023-02-21T09:45:26;84.90;;;34.15;;
47219;SDS011;32961;51.936;4.788;2023-02-21T09:47:59;99.07;;;35.10;;
47219;SDS011;32961;51.936;4.788;2023-02-21T09:50:33;99.55;;;36.70;;
47219;SDS011;32961;51.936;4.788;2023-02-21T09:53:06;101.57;;;35.95;;
47219;SDS011;32961;51.936;4.788;2023-02-21T09:55:35;101.38;;;35.97;;
47219;SDS011;32961;51.936;4.788;2023-02-21T09:58:09;101.57;;;36.90;;
47219;SDS011;32961;51.936;4.788;2023-02-21T10:03:15;99.28;;;36.92;;
47219;SDS011;32961;51.936;4.788;2023-02-21T10:05:55;101.47;;;36.95;;
47219;SDS011;32961;51.936;4.788;2023-02-21T10:08:30;101.45;;;35.08;;
47219;SDS011;32961;51.936;4.788;2023-02-21T10:11:06;95.38;;;36.53;;
47219;SDS011;32961;51.936;4.788;2023-02-21T10:13:51;88.10;;;35.78;;
47219;SDS011;32961;51.936;4.788;2023-02-21T10:16:31;113.65;;;37.47;;
47219;SDS011;32961;51.936;4.788;2023-02-21T10:21:33;103.20;;;36.35;;
47219;SDS011;32961;51.936;4.788;2023-02-21T10:24:08;105.93;;;38.00;;
47219;SDS011;32961;51.936;4.788;2023-02-21T10:26:39;100.13;;;37.95;;
47219;SDS011;32961;51.936;4.788;2023-02-21T10:29:19;102.43;;;37.25;;
47219;SDS011;32961;51.936;4.788;2023-02-21T10:31:51;96.75;;;36.17;;
47219;SDS011;32961;51.936;4.788;2023-02-21T10:34:23;96.43;;;35.40;;
47219;SDS011;32961;51.936;4.788;2023-02-21T10:36:53;99.22;;;36.08;;
47219;SDS011;32961;51.936;4.788;2023-02-21T10:39:23;88.72;;;33.45;;
47219;SDS011;32961;51.936;4.788;2023-02-21T10:41:57;88.53;;;35.60;;
47219;SDS011;32961;51.936;4.788;2023-02-21T10:44:28;88.38;;;33.75;;
47219;SDS011;32961;51.936;4.788;2023-02-21T10:47:01;81.43;;;32.70;;
47219;SDS011;32961;51.936;4.788;2023-02-21T10:49:37;77.55;;;33.63;;
47219;SDS011;32961;51.936;4.788;2023-02-21T10:52:12;81.35;;;33.75;;
47219;SDS011;32961;51.936;4.788;2023-02-21T10:54:44;71.13;;;29.45;;
47219;SDS011;32961;51.936;4.788;2023-02-21T10:57:27;65.75;;;29.15;;
47219;SDS011;32961;51.936;4.788;2023-02-21T10:59:58;62.55;;;27.33;;
47219;SDS011;32961;51.936;4.788;2023-02-21T11:02:36;73.97;;;31.17;;
47219;SDS011;32961;51.936;4.788;2023-02-21T11:05:11;59.75;;;24.13;;
47219;SDS011;32961;51.936;4.788;2023-02-21T11:07:53;51.83;;;22.65;;
47219;SDS011;32961;51.936;4.788;2023-02-21T11:10:28;60.40;;;28.45;;
47219;SDS011;32961;51.936;4.788;2023-02-21T11:13:06;51.85;;;22.98;;
47219;SDS011;32961;51.936;4.788;2023-02-21T11:15:42;47.38;;;21.92;;
47219;SDS011;32961;51.936;4.788;2023-02-21T11:18:12;43.67;;;21.25;;
47219;SDS011;32961;51.936;4.788;2023-02-21T11:20:42;49.53;;;23.27;;
47219;SDS011;32961;51.936;4.788;2023-02-21T11:23:17;46.20;;;20.40;;
47219;SDS011;32961;51.936;4.788;2023-02-21T11:25:48;40.90;;;19.63;;
47219;SDS011;32961;51.936;4.788;2023-02-21T11:28:21;38.90;;;18.77;;
47219;SDS011;32961;51.936;4.788;2023-02-21T11:31:06;36.97;;;17.65;;
47219;SDS011;32961;51.936;4.788;2023-02-21T11:33:41;31.50;;;15.95;;
47219;SDS011;32961;51.936;4.788;2023-02-21T11:36:17;29.13;;;14.68;;
47219;SDS011;32961;51.936;4.788;2023-02-21T11:38:58;29.33;;;15.80;;
47219;SDS011;32961;51.936;4.788;2023-02-21T11:41:34;25.52;;;13.95;;
47219;SDS011;32961;51.936;4.788;2023-02-21T11:44:20;28.33;;;15.52;;
47219;SDS011;32961;51.936;4.788;2023-02-21T11:46:54;29.08;;;16.77;;
47219;SDS011;32961;51.936;4.788;2023-02-21T11:49:31;27.67;;;15.35;;
47219;SDS011;32961;51.936;4.788;2023-02-21T11:52:04;22.00;;;13.77;;
47219;SDS011;32961;51.936;4.788;2023-02-21T11:54:36;25.50;;;13.95;;
47219;SDS011;32961;51.936;4.788;2023-02-21T11:57:06;23.33;;;13.23;;
47219;SDS011;32961;51.936;4.788;2023-02-21T11:59:42;24.95;;;14.05;;
47219;SDS011;32961;51.936;4.788;2023-02-21T12:02:23;24.92;;;13.85;;
47219;SDS011;32961;51.936;4.788;2023-02-21T12:05:17;29.60;;;17.35;;
47219;SDS011;32961;51.936;4.788;2023-02-21T12:07:58;25.75;;;16.20;;
47219;SDS011;32961;51.936;4.788;2023-02-21T12:10:42;24.50;;;13.80;;
47219;SDS011;32961;51.936;4.788;2023-02-21T12:13:18;23.33;;;13.00;;
47219;SDS011;32961;51.936;4.788;2023-02-21T12:15:56;24.67;;;13.98;;
47219;SDS011;32961;51.936;4.788;2023-02-21T12:18:38;23.88;;;13.45;;
47219;SDS011;32961;51.936;4.788;2023-02-21T12:21:19;26.38;;;13.68;;
47219;SDS011;32961;51.936;4.788;2023-02-21T12:24:02;17.30;;;12.20;;
47219;SDS011;32961;51.936;4.788;2023-02-21T12:26:46;19.50;;;11.75;;
47219;SDS011;32961;51.936;4.788;2023-02-21T12:29:22;21.27;;;12.15;;
47219;SDS011;32961;51.936;4.788;2023-02-21T12:32:15;19.27;;;12.98;;
47219;SDS011;32961;51.936;4.788;2023-02-21T12:35:01;21.38;;;12.98;;
47219;SDS011;32961;51.936;4.788;2023-02-21T12:37:42;33.58;;;16.13;;
47219;SDS011;32961;51.936;4.788;2023-02-21T12:40:18;24.60;;;14.80;;
47219;SDS011;32961;51.936;4.788;2023-02-21T12:43:01;24.73;;;12.23;;
47219;SDS011;32961;51.936;4.788;2023-02-21T12:45:53;20.52;;;12.77;;
47219;SDS011;32961;51.936;4.788;2023-02-21T12:48:29;16.95;;;10.75;;
47219;SDS011;32961;51.936;4.788;2023-02-21T12:51:02;19.95;;;11.73;;
47219;SDS011;32961;51.936;4.788;2023-02-21T12:53:34;18.27;;;11.45;;
47219;SDS011;32961;51.936;4.788;2023-02-21T12:56:10;32.53;;;19.75;;
47219;SDS011;32961;51.936;4.788;2023-02-21T12:58:42;18.17;;;11.27;;
47219;SDS011;32961;51.936;4.788;2023-02-21T13:01:14;20.08;;;11.55;;
47219;SDS011;32961;51.936;4.788;2023-02-21T13:03:50;21.10;;;11.75;;
47219;SDS011;32961;51.936;4.788;2023-02-21T13:06:27;18.98;;;12.38;;
47219;SDS011;32961;51.936;4.788;2023-02-21T13:09:02;20.80;;;10.38;;
47219;SDS011;32961;51.936;4.788;2023-02-21T13:11:39;17.88;;;10.52;;
47219;SDS011;32961;51.936;4.788;2023-02-21T13:14:12;17.10;;;10.50;;
47219;SDS011;32961;51.936;4.788;2023-02-21T13:16:44;18.02;;;9.63;;
47219;SDS011;32961;51.936;4.788;2023-02-21T13:19:12;16.42;;;10.13;;
47219;SDS011;32961;51.936;4.788;2023-02-21T13:21:48;17.15;;;10.52;;
47219;SDS011;32961;51.936;4.788;2023-02-21T13:24:27;17.52;;;10.20;;
47219;SDS011;32961;51.936;4.788;2023-02-21T13:27:24;16.38;;;9.70;;
47219;SDS011;32961;51.936;4.788;2023-02-21T13:30:09;18.95;;;9.50;;
47219;SDS011;32961;51.936;4.788;2023-02-21T13:32:48;18.30;;;9.93;;
47219;SDS011;32961;51.936;4.788;2023-02-21T13:35:18;13.43;;;9.65;;
47219;SDS011;32961;51.936;4.788;2023-02-21T13:37:53;11.60;;;8.30;;
47219;SDS011;32961;51.936;4.788;2023-02-21T13:40:23;17.95;;;10.05;;
47219;SDS011;32961;51.936;4.788;2023-02-21T13:43:02;20.50;;;10.48;;
47219;SDS011;32961;51.936;4.788;2023-02-21T13:45:33;15.70;;;9.13;;
47219;SDS011;32961;51.936;4.788;2023-02-21T13:48:18;21.23;;;12.27;;
47219;SDS011;32961;51.936;4.788;2023-02-21T13:50:48;16.50;;;9.80;;
47219;SDS011;32961;51.936;4.788;2023-02-21T13:53:19;15.40;;;9.73;;
47219;SDS011;32961;51.936;4.788;2023-02-21T13:58:42;28.83;;;17.45;;
47219;SDS011;32961;51.936;4.788;2023-02-21T14:01:12;25.63;;;14.40;;
47219;SDS011;32961;51.936;4.788;2023-02-21T14:03:52;17.70;;;11.15;;
47219;SDS011;32961;51.936;4.788;2023-02-21T14:06:28;16.60;;;10.27;;
47219;SDS011;32961;51.936;4.788;2023-02-21T14:09:03;17.63;;;10.55;;
47219;SDS011;32961;51.936;4.788;2023-02-21T14:11:38;17.77;;;10.50;;
47219;SDS011;32961;51.936;4.788;2023-02-21T14:14:20;15.15;;;9.32;;
47219;SDS011;32961;51.936;4.788;2023-02-21T14:16:52;15.90;;;9.05;;
47219;SDS011;32961;51.936;4.788;2023-02-21T14:19:26;15.95;;;9.23;;
47219;SDS011;32961;51.936;4.788;2023-02-21T14:22:02;16.65;;;9.82;;
47219;SDS011;32961;51.936;4.788;2023-02-21T14:24:38;15.05;;;9.65;;
47219;SDS011;32961;51.936;4.788;2023-02-21T14:33:06;21.35;;;11.68;;
47219;SDS011;32961;51.936;4.788;2023-02-21T14:35:45;20.35;;;11.98;;
47219;SDS011;32961;51.936;4.788;2023-02-21T14:38:20;18.88;;;11.88;;
47219;SDS011;32961;51.936;4.788;2023-02-21T14:40:56;20.70;;;11.10;;
47219;SDS011;32961;51.936;4.788;2023-02-21T14:46:42;20.65;;;10.68;;
47219;SDS011;32961;51.936;4.788;2023-02-21T14:52:25;19.17;;;11.30;;
47219;SDS011;32961;51.936;4.788;2023-02-21T14:58:38;21.27;;;11.90;;
47219;SDS011;32961;51.936;4.788;2023-02-21T15:01:34;22.67;;;12.82;;
47219;SDS011;32961;51.936;4.788;2023-02-21T15:06:42;24.30;;;12.75;;
47219;SDS011;32961;51.936;4.788;2023-02-21T15:09:20;24.85;;;13.32;;
47219;SDS011;32961;51.936;4.788;2023-02-21T15:11:48;27.08;;;14.70;;
47219;SDS011;32961;51.936;4.788;2023-02-21T15:14:18;25.85;;;14.82;;
47219;SDS011;32961;51.936;4.788;2023-02-21T15:16:52;25.83;;;13.50;;
47219;SDS011;32961;51.936;4.788;2023-02-21T15:19:26;25.90;;;14.20;;
47219;SDS011;32961;51.936;4.788;2023-02-21T15:22:06;28.60;;;14.70;;
47219;SDS011;32961;51.936;4.788;2023-02-21T15:27:53;31.50;;;14.82;;
47219;SDS011;32961;51.936;4.788;2023-02-21T15:30:32;27.58;;;14.55;;
47219;SDS011;32961;51.936;4.788;2023-02-21T15:33:07;30.88;;;15.20;;
47219;SDS011;32961;51.936;4.788;2023-02-21T15:35:44;34.45;;;16.45;;
47219;SDS011;32961;51.936;4.788;2023-02-21T15:38:18;30.95;;;14.60;;
47219;SDS011;32961;51.936;4.788;2023-02-21T15:40:49;31.75;;;14.15;;